ADDS METAR Data INFO
IDs: Format: Raw Decoded Include TAF

Data at: 0319 UTC 20 Jul 2018

KVRB 200253Z AUTO 00000KT 10SM BKN050 27/23 A3001 RMK AO2 SLP160 T02670228 52013
KVRB 200153Z AUTO 16003KT 10SM BKN070 29/23 A3000 RMK AO2 SLP158 T02890233
KVRB 200053Z 12004KT 10SM SCT047 BKN060 29/22 A2998 RMK AO2 SLP150 T02890222
KVRB 192353Z 08003KT 10SM CLR 29/23 A2997 RMK AO2 SLP148 T02890228 10361 20272 55002
KVRB 192253Z 11003KT 10SM VCTS CLR 29/22 A2996 RMK AO2 SLP145 T02940222
KVRB 192153Z 00000KT 10SM VCTS CLR 29/23 A2997 RMK AO2 WSHFT 2042 LTG DSNT NE SLP147 T02890228
KVRB 192108Z 27014KT 10SM VCTS FEW060 BKN090 28/22 A2997 RMK AO2 WSHFT 2042 LTG DSNT N T02780222
KVRB 192053Z 28019G24KT 10SM VCTS SCT060 BKN090 31/23 A2998 RMK AO2 SLP150 T03110228 55005
KVRB 192039Z 23007KT 10SM VCTS FEW075 34/19 A2996 RMK AO2 LTG DSNT SW AND W T03440194
KVRB 191953Z 21009KT 10SM SCT064 35/19 A2996 RMK AO2 LTG DSNT SW SLP143 T03500189
KVRB 191853Z 22011G15KT 10SM CLR 35/19 A2997 RMK AO2 SLP147 T03500194
KVRB 191753Z 25010KT 10SM SCT050 35/19 A2999 RMK AO2 SLP155 T03500189 10350 20261 58014
KVRB 191653Z 22012KT 10SM CLR 34/19 A3001 RMK AO2 SLP160 T03390189
KVRB 191553Z 20010KT 10SM SCT043 33/22 A3003 RMK AO2 SLP166 T03330217
KVRB 191453Z 21009KT 10SM CLR 32/21 A3003 RMK AO2 SLP169 T03220206 51010
KVRB 191353Z 19009KT 10SM CLR 31/23 A3003 RMK AO2 SLP168 T03060228
KVRB 191253Z 23006KT 10SM CLR 29/24 A3002 RMK AO2 SLP164 T02890239
KVRB 191153Z 21004KT 10SM CLR 26/24 A3000 RMK AO2 SLP159 T02610244 10261 20244 51009
KVRB 191053Z AUTO 21003KT 10SM CLR 24/23 A3000 RMK AO2 SLP156 T02440233
KVRB 190953Z AUTO 22006KT 10SM CLR 25/23 A2999 RMK AO2 SLP153 T02500233
KVRB 190853Z AUTO 21003KT 10SM CLR 24/23 A2997 RMK AO2 SLP149 T02440233 56015
KVRB 190753Z AUTO 20004KT 10SM CLR 26/24 A2998 RMK AO2 SLP152 T02560239
KVRB 190653Z AUTO 23003KT 10SM CLR 26/24 A3000 RMK AO2 SLP157 T02560239
KVRB 190553Z AUTO 25003KT 10SM CLR 25/24 A3002 RMK AO2 SLP164 T02500239 10289 20244 50000
KVRB 190453Z AUTO 00000KT 10SM SCT055 25/23 A3002 RMK AO2 SLP165 T02500233 403560244
KVRB 190353Z AUTO 00000KT 10SM CLR 26/24 A3002 RMK AO2 SLP165 T02560239
KVRB 190253Z AUTO 24003KT 10SM CLR 27/24 A3002 RMK AO2 SLP164 T02670244 53010
KVRB 190153Z AUTO 17004KT 10SM CLR 28/24 A2999 RMK AO2 SLP156 T02780239
KVRB 190053Z 10004KT 10SM CLR 28/24 A2999 RMK AO2 SLP155 T02780239
KVRB 182353Z 10005KT 10SM CLR 29/24 A2999 RMK AO2 SLP153 T02890239 10356 20289 56011
KVRB 182253Z 00000KT 10SM CLR 31/23 A3000 RMK AO2 LTG DSNT E AND SE SLP157 T03060233
KVRB 182153Z 31004KT 10SM CLR 30/23 A3000 RMK AO2 LTG DSNT SE SLP159 T03000233
KVRB 182053Z 30009KT 10SM SCT030 SCT060 30/23 A3002 RMK AO2 LTG DSNT ALQDS SLP164 T03000233 55001
KVRB 181953Z AUTO 27014KT 10SM SCT046 BKN055 OVC075 33/23 A3001 RMK AO2 WSHFT 1917 LTG DSNT W-NE SLP163 T03330228
KVRB 181937Z 28015KT 10SM BKN046 BKN060 OVC090 32/22 A3002 RMK AO2 WSHFT 1917 LTG DSNT W-N T03220222
KVRB 181853Z 19009KT 10SM SCT045 36/22 A3001 RMK AO2 LTG DSNT W AND NW SLP159 T03560222
KVRB 181753Z 24008KT 10SM BKN045 33/22 A3002 RMK AO2 SLP165 T03280217 10344 20267 58012
KVRB 181653Z 23009KT 10SM SCT042 SCT055 34/22 A3004 RMK AO2 SLP170 T03390217
KVRB 181553Z 22008KT 10SM SCT042 33/22 A3005 RMK AO2 SLP176 T03330222